LFRZ/SNR METAR and TAF weather

Enter ICAO airport designator
Station Type Date Time Source
LFRZ METAR 2022/01/18 07:30 UTC NOAA

LFRZ 180730Z AUTO 07005KT 9999 OVC012 05/03 Q1035 TEMPO BKN008


Station Type Date Time Source
LFRZ Decoded METAR 2022/01/18 07:30 UTC NOAA

St-Nazaire, France (LFRZ) 47-19N 002-10W 4M
Jan 18, 2022 - 02:30 AM EST / 2022.01.18 0730 UTC
Wind: from the ENE (070 degrees) at 6 MPH (5 KT):0
Visibility: greater than 7 mile(s):0
Sky conditions: overcast
Temperature: 41 F (5 C)
Dew Point: 37 F (3 C)
Relative Humidity: 86%
Pressure (altimeter): 30.56 in. Hg (1035 hPa)
ob: LFRZ 180730Z AUTO 07005KT 9999 OVC012 05/03 Q1035 TEMPO BKN008
cycle: 7

Station Type Date Time Source
LFRZ TAF 2022/01/18 06:42 UTC NOAA

TAF LFRZ 180500Z 1806/1906 08006KT 9999 SCT015
TEMPO 1806/1812 BKN008 PROB30
TEMPO 1806/1808 4000 BR
BECMG 1816/1818 BKN016
TEMPO 1818/1824 4000 -RA BKN013
TEMPO 1900/1906 3000 BR BKN010

Example: see airport list